Terminal Aerodrome Forecast
Issued by NWS Sterling, VA

Current Version | Previous Version | Text Only | Print | Product List | Glossary Off
Versions: 1 2 3 4 5 6 7 8 9 10 11 12 13 14 15 16 17 18 19 20 21 22 23

000
FTUS41 KLWX 191801 RRA
TAFDCA
TAF
KDCA 191801Z 1918/2024 30016G34KT P6SM BKN040
     FM192300 31018G34KT P6SM SCT050
     FM200200 31015G31KT P6SM FEW250
     FM200600 31012G24KT P6SM FEW250
     FM202300 33011KT P6SM FEW250=

USA.gov is the U.S. government's official web portal to all federal, state and local government web resources and services.